createdAt,value
2022-08-23T00:05:08.332Z,99903.00
2022-08-23T00:10:10.306Z,99907.07
2022-08-23T00:15:16.342Z,99907.01
2022-08-23T00:20:20.647Z,99907.17
2022-08-23T00:25:23.859Z,99911.29
2022-08-23T00:30:27.165Z,99903.60
2022-08-23T00:35:30.580Z,99898.92
2022-08-23T00:40:34.094Z,99900.96
2022-08-23T00:46:05.977Z,99900.83
2022-08-23T00:51:25.057Z,99896.48
2022-08-23T00:56:32.154Z,99897.17
2022-08-23T01:01:36.749Z,99892.67
2022-08-23T01:06:58.700Z,99891.09
2022-08-23T01:12:31.116Z,99890.50
2022-08-23T01:17:40.184Z,99893.35
2022-08-23T01:22:58.443Z,99890.79
2022-08-23T01:28:02.243Z,99893.89
2022-08-23T01:33:06.805Z,99901.11
2022-08-23T01:38:12.126Z,99893.64
2022-08-23T01:43:16.397Z,99900.08
2022-08-23T01:48:21.142Z,99902.98
2022-08-23T01:53:24.658Z,99906.50
2022-08-23T01:58:31.757Z,99906.78
2022-08-23T02:03:35.580Z,99911.06
2022-08-23T02:08:57.733Z,99917.02
2022-08-23T02:14:05.959Z,99917.54
2022-08-23T02:19:13.085Z,99922.61
2022-08-23T02:24:23.111Z,99918.15
2022-08-23T02:29:30.001Z,99921.79
2022-08-23T02:34:33.949Z,99922.27
2022-08-23T02:39:38.852Z,99920.79
2022-08-23T02:44:42.516Z,99924.67
2022-08-23T02:49:46.544Z,99923.79
2022-08-23T02:54:50.163Z,99930.02
2022-08-23T02:59:58.393Z,99933.42
2022-08-23T03:05:01.800Z,99935.51
2022-08-23T03:10:07.374Z,99941.71
2022-08-23T03:15:11.966Z,99945.86
2022-08-23T03:20:16.033Z,99953.66
2022-08-23T03:25:19.653Z,99952.90
2022-08-23T03:30:23.065Z,99948.39
2022-08-23T03:35:26.991Z,99940.74
2022-08-23T03:40:30.203Z,99940.82
2022-08-23T03:45:33.612Z,99945.62
2022-08-23T03:50:37.334Z,99941.75
2022-08-23T03:55:42.909Z,99943.90
2022-08-23T04:00:46.417Z,99946.84
2022-08-23T04:05:49.725Z,99953.58
2022-08-23T04:10:53.033Z,99952.20
2022-08-23T04:15:59.628Z,99949.36
2022-08-23T04:21:07.841Z,99950.34
2022-08-23T04:26:11.976Z,99934.02
2022-08-23T04:31:16.618Z,99934.16
2022-08-23T04:36:23.445Z,99936.66
2022-08-23T04:41:45.975Z,99932.38
2022-08-23T04:46:49.489Z,99935.10
2022-08-23T04:51:53.934Z,99934.27
2022-08-23T04:56:57.646Z,99937.73
2022-08-23T05:02:00.961Z,99939.92
2022-08-23T05:07:04.475Z,99936.61
2022-08-23T05:12:08.402Z,99939.91
2022-08-23T05:17:11.710Z,99950.70
2022-08-23T05:22:16.967Z,99941.92
2022-08-23T05:27:20.481Z,99928.73
2022-08-23T05:32:23.998Z,99927.13
2022-08-23T05:37:27.866Z,99935.50
2022-08-23T05:42:31.234Z,99952.68
2022-08-23T05:47:34.749Z,99964.10
2022-08-23T05:52:38.987Z,99979.20
2022-08-23T05:57:42.397Z,99985.56
2022-08-23T06:02:45.706Z,99982.62
2022-08-23T06:07:49.937Z,99986.47
2022-08-23T06:12:53.249Z,99981.66
2022-08-23T06:17:56.920Z,99989.13
2022-08-23T06:23:00.080Z,99999.71
2022-08-23T06:28:03.747Z,100000.83
2022-08-23T06:33:07.107Z,100003.41
2022-08-23T06:38:10.929Z,100011.65
2022-08-23T06:43:14.343Z,100018.75
2022-08-23T06:48:18.950Z,100010.61
2022-08-23T06:53:22.397Z,100024.05
2022-08-23T06:58:26.118Z,100029.70
2022-08-23T07:03:29.434Z,100037.89
2022-08-23T07:08:40.011Z,100049.05
2022-08-23T07:13:44.074Z,100054.34
2022-08-23T07:18:50.013Z,100057.77
2022-08-23T07:23:54.755Z,100062.05
2022-08-23T07:28:58.885Z,100058.98
2022-08-23T07:34:05.280Z,100064.02
2022-08-23T07:39:10.218Z,100059.13
2022-08-23T07:44:16.800Z,100063.30
2022-08-23T07:49:22.063Z,100067.31
2022-08-23T07:54:25.943Z,100068.60
2022-08-23T07:59:34.437Z,100070.33
2022-08-23T08:04:39.113Z,100073.29
2022-08-23T08:09:42.473Z,100072.30
2022-08-23T08:14:48.607Z,100082.17
2022-08-23T08:19:52.681Z,100080.60
2022-08-23T08:24:55.891Z,100075.18
2022-08-23T08:29:59.302Z,100080.15
2022-08-23T08:35:03.330Z,100075.90
2022-08-23T08:40:08.468Z,100079.31
2022-08-23T08:45:27.923Z,100079.96
2022-08-23T08:50:41.267Z,100085.98
2022-08-23T08:55:52.884Z,100083.75
2022-08-23T09:00:57.463Z,100083.77
2022-08-23T09:06:13.361Z,100080.00
2022-08-23T09:11:32.965Z,100075.14
2022-08-23T09:16:58.288Z,100076.84
2022-08-23T09:22:08.361Z,100081.05
2022-08-23T09:27:12.191Z,100080.23
2022-08-23T09:32:34.791Z,100080.45
2022-08-23T09:38:20.710Z,100085.19
2022-08-23T09:43:27.886Z,100083.09
2022-08-23T09:48:35.981Z,100075.76
2022-08-23T09:53:41.380Z,100076.52
2022-08-23T09:58:47.935Z,100069.98
2022-08-23T10:04:24.876Z,100068.81
2022-08-23T10:09:33.213Z,100071.60
2022-08-23T10:14:44.044Z,100068.17
2022-08-23T10:20:07.423Z,100066.65
2022-08-23T10:25:27.428Z,100077.49
2022-08-23T10:30:58.612Z,100075.00
2022-08-23T10:36:20.125Z,100076.32
2022-08-23T10:41:49.961Z,100079.32
2022-08-23T10:47:27.934Z,100076.19
2022-08-23T10:52:40.745Z,100075.38
2022-08-23T10:57:49.303Z,100079.84
2022-08-23T11:03:03.493Z,100076.94
2022-08-23T11:08:30.790Z,100075.63
2022-08-23T11:13:35.352Z,100076.70
2022-08-23T11:18:45.912Z,100066.98
2022-08-23T11:23:50.965Z,100066.83
2022-08-23T11:29:07.894Z,100062.09
2022-08-23T11:34:23.027Z,100055.23
2022-08-23T11:39:58.527Z,100050.70
2022-08-23T11:45:03.192Z,100040.16
2022-08-23T11:50:31.486Z,100046.34
2022-08-23T11:56:06.131Z,100043.59
2022-08-23T12:01:12.334Z,100029.24
2022-08-23T12:06:39.146Z,100024.23
2022-08-23T12:11:58.151Z,100028.17
2022-08-23T12:17:13.803Z,100019.05
2022-08-23T12:22:22.594Z,100026.71
2022-08-23T12:27:34.710Z,100030.48
2022-08-23T12:32:56.656Z,100031.73
2022-08-23T12:38:20.154Z,100028.15
2022-08-23T12:43:26.948Z,100026.75
2022-08-23T12:48:45.297Z,100023.27
2022-08-23T12:53:48.723Z,100016.89
2022-08-23T12:58:58.328Z,99998.75
2022-08-23T13:04:11.408Z,99988.14
2022-08-23T13:09:20.558Z,99974.42
2022-08-23T13:14:42.897Z,99950.42
2022-08-23T13:19:49.253Z,99988.80
2022-08-23T13:25:27.527Z,100012.57
2022-08-23T13:30:33.094Z,100030.98
2022-08-23T13:35:37.975Z,100012.21
2022-08-23T13:41:01.420Z,100019.64
2022-08-23T13:46:12.996Z,100047.58
2022-08-23T13:51:27.889Z,100046.67
2022-08-23T13:56:36.254Z,100022.59
2022-08-23T14:01:40.001Z,100017.14
2022-08-23T14:06:43.472Z,100046.84
2022-08-23T14:11:57.958Z,100089.56
2022-08-23T14:17:02.985Z,100096.16
2022-08-23T14:22:06.717Z,100081.52
2022-08-23T14:27:11.565Z,100081.09
2022-08-23T14:32:14.777Z,100068.88
2022-08-23T14:38:00.700Z,100072.83
2022-08-23T14:42:41.369Z,100079.43
2022-08-23T14:47:44.572Z,100084.60
2022-08-23T14:52:48.604Z,100086.44
2022-08-23T14:57:52.115Z,100089.06
2022-08-23T15:02:55.882Z,100092.58
2022-08-23T15:07:59.352Z,100086.81
2022-08-23T15:13:20.717Z,100082.84
2022-08-23T15:18:28.296Z,100073.35
2022-08-23T15:23:32.545Z,100058.06
2022-08-23T15:28:36.407Z,100038.23
2022-08-23T15:33:40.482Z,100017.27
2022-08-23T15:38:48.045Z,100027.65
2022-08-23T15:43:52.226Z,100059.46
2022-08-23T15:49:04.107Z,100094.14
2022-08-23T15:54:10.239Z,100110.21
2022-08-23T16:05:55.862Z,100157.97
2022-08-23T16:11:00.702Z,100169.35
2022-08-23T16:16:04.483Z,100169.73
2022-08-23T16:21:08.350Z,100177.94
2022-08-23T16:26:21.592Z,100180.00
2022-08-23T16:31:38.817Z,100132.61
2022-08-23T16:36:46.281Z,100106.31
2022-08-23T16:41:50.158Z,100118.38
2022-08-23T16:46:54.190Z,100143.84
2022-08-23T16:51:57.505Z,100148.61
2022-08-23T16:57:00.987Z,100149.40
2022-08-23T17:02:10.627Z,100154.45
2022-08-23T17:07:15.115Z,100169.17
2022-08-23T17:12:19.640Z,100177.27
2022-08-23T17:17:23.331Z,100172.73
2022-08-23T17:22:26.477Z,100152.66
2022-08-23T17:27:30.407Z,100144.50
2022-08-23T17:32:34.230Z,100151.01
2022-08-23T17:37:38.155Z,100164.29
2022-08-23T17:42:43.001Z,100171.80
2022-08-23T17:47:47.954Z,100165.08
2022-08-23T17:52:51.362Z,100163.45
2022-08-23T17:57:58.181Z,100175.34
2022-08-23T18:03:08.224Z,100177.72
2022-08-23T18:08:11.554Z,100187.34
2022-08-23T18:13:15.049Z,100174.05
2022-08-23T18:18:18.520Z,100170.55
2022-08-23T18:23:22.083Z,100173.11
2022-08-23T18:28:25.398Z,100173.83
2022-08-23T18:33:31.954Z,100178.20
2022-08-23T18:38:50.243Z,100181.09
2022-08-23T18:43:53.554Z,100183.34
2022-08-23T18:48:56.970Z,100176.61
2022-08-23T18:54:00.895Z,100177.04
2022-08-23T18:59:05.428Z,100176.42
2022-08-23T19:04:10.381Z,100172.52
2022-08-23T19:09:13.694Z,100169.27
2022-08-23T19:14:17.208Z,100171.24
2022-08-23T19:19:20.419Z,100170.08
2022-08-23T19:24:24.443Z,100169.93
2022-08-23T19:29:27.962Z,100179.27
2022-08-23T19:34:32.294Z,100180.46
2022-08-23T19:39:37.055Z,100186.52
2022-08-23T19:44:40.453Z,100191.42
2022-08-23T19:49:43.761Z,100200.27
2022-08-23T19:54:47.183Z,100200.30
2022-08-23T19:59:51.267Z,100196.06
2022-08-23T20:04:54.619Z,100197.97
2022-08-23T20:09:57.964Z,100193.20
2022-08-23T20:15:02.341Z,100192.77
2022-08-23T20:20:08.703Z,100190.05
2022-08-23T20:25:12.017Z,100188.90
2022-08-23T20:30:15.630Z,100185.65
2022-08-23T20:35:18.788Z,100190.55
2022-08-23T20:40:23.529Z,100188.77
2022-08-23T20:45:27.048Z,100191.02
2022-08-23T20:50:31.378Z,100183.97
2022-08-23T20:55:34.708Z,100190.67
2022-08-23T21:00:38.257Z,100199.16
2022-08-23T21:05:41.517Z,100198.45
2022-08-23T21:10:45.458Z,100196.05
2022-08-23T21:15:49.401Z,100201.70
2022-08-23T21:20:53.339Z,100206.36
2022-08-23T21:25:58.453Z,100212.43
2022-08-23T21:31:07.912Z,100217.01
2022-08-23T21:36:13.469Z,100229.13
2022-08-23T21:41:42.025Z,100234.28
2022-08-23T21:46:46.063Z,100238.54
2022-08-23T21:51:50.637Z,100237.92
2022-08-23T21:56:53.948Z,100236.64
2022-08-23T22:01:57.503Z,100238.67
2022-08-23T22:07:01.023Z,100232.70
2022-08-23T22:12:05.315Z,100230.80
2022-08-23T22:17:10.059Z,100232.15
2022-08-23T22:22:15.419Z,100259.05
2022-08-23T22:27:19.550Z,100263.48
2022-08-23T22:32:23.678Z,100261.50
2022-08-23T22:37:27.296Z,100263.08
2022-08-23T22:42:30.608Z,100260.83
2022-08-23T22:47:34.022Z,100249.58
2022-08-23T22:52:37.848Z,100247.27
2022-08-23T22:57:41.258Z,100244.48
2022-08-23T23:02:44.778Z,100245.09
2022-08-23T23:08:06.619Z,100242.36
2022-08-23T23:13:10.340Z,100240.45
2022-08-23T23:18:13.648Z,100233.05
2022-08-23T23:23:22.782Z,100234.45
2022-08-23T23:28:26.828Z,100234.58
2022-08-23T23:33:30.135Z,100224.31
2022-08-23T23:38:33.449Z,100232.89
2022-08-23T23:43:37.577Z,100249.86
2022-08-23T23:48:41.704Z,100254.63
2022-08-23T23:53:45.223Z,100239.73
2022-08-23T23:58:51.298Z,100229.77
